Time;durP1;ratioP1;P1;durP2;ratioP2;P2;SDS_P1;SDS_P2;PMS_P1;PMS_P2;Temp;Humidity;BMP_temperature;BMP_pressure;BME280_temperature;BME280_humidity;BME280_pressure;Samples;Min_cycle;Max_cycle;Signal;HPM_P1;HPM_P2
2020/12/15 00:00:17;;;;;;;53.42;26.45;;;;;;;0.36;88.61;100612.22;1664616;86;22268;-77
2020/12/15 00:02:45;;;;;;;54.40;26.75;;;;;;;0.36;88.55;100615.25;1639647;86;21185;-79
2020/12/15 00:05:14;;;;;;;48.10;24.25;;;;;;;0.35;88.43;100613.09;1639960;87;21106;-79
2020/12/15 00:07:42;;;;;;;46.85;23.92;;;;;;;0.35;88.43;100613.09;1623341;87;21170;-81
2020/12/15 00:10:10;;;;;;;42.23;23.70;;;;;;;0.36;88.46;100611.36;1643406;86;21167;-83
2020/12/15 00:12:41;;;;;;;51.60;26.45;;;;;;;0.36;88.52;100621.72;1642930;87;21482;-81
2020/12/15 00:15:10;;;;;;;55.65;27.48;;;;;;;0.36;88.57;100621.72;1643148;87;21162;-80
2020/12/15 00:17:37;;;;;;;52.70;26.73;;;;;;;0.33;88.53;100622.98;1642810;87;21131;-80
2020/12/15 00:20:47;;;;;;;35.47;17.83;;;;;;;0.40;88.55;100620.92;1856561;77;22702;-80
2020/12/15 00:23:15;;;;;;;37.85;20.10;;;;;;;0.34;88.47;100623.42;1861728;77;21055;-80
2020/12/15 00:25:43;;;;;;;45.10;21.75;;;;;;;0.33;88.54;100622.56;1871216;76;22512;-78
2020/12/15 00:28:10;;;;;;;46.18;23.45;;;;;;;0.33;88.58;100626.45;1845372;77;21550;-79
2020/12/15 00:30:40;;;;;;;53.28;25.08;;;;;;;0.32;88.62;100631.59;1859306;77;21068;-79
2020/12/15 00:33:08;;;;;;;55.90;27.25;;;;;;;0.32;88.64;100630.30;1846341;77;21036;-81
2020/12/15 00:35:36;;;;;;;55.67;27.37;;;;;;;0.33;88.64;100632.06;1861404;77;21048;-80
2020/12/15 00:38:06;;;;;;;51.58;25.43;;;;;;;0.36;88.55;100634.67;1813651;78;21371;-79
2020/12/15 00:40:34;;;;;;;57.80;27.75;;;;;;;0.34;88.56;100639.83;1826609;78;20993;-80
2020/12/15 00:43:02;;;;;;;56.50;28.38;;;;;;;0.34;88.60;100640.27;1813745;79;21127;-79
2020/12/15 00:45:30;;;;;;;55.33;27.00;;;;;;;0.34;88.70;100637.23;1824480;78;21153;-79
2020/12/15 00:47:58;;;;;;;59.63;27.25;;;;;;;0.38;88.73;100635.57;1812597;79;21115;-80
2020/12/15 00:50:27;;;;;;;56.75;28.50;;;;;;;0.40;88.66;100628.69;1824990;78;21374;-80
2020/12/15 00:52:57;;;;;;;57.27;26.82;;;;;;;0.45;88.64;100633.50;1824643;78;21135;-78
2020/12/15 00:55:25;;;;;;;53.63;27.00;;;;;;;0.46;88.57;100631.37;1810339;78;21068;-79
2020/12/15 00:57:53;;;;;;;56.55;27.45;;;;;;;0.46;88.58;100626.19;1809721;78;21130;-77
2020/12/15 01:00:20;;;;;;;56.68;26.20;;;;;;;0.46;88.62;100631.37;1819170;78;21130;-76
2020/12/15 01:02:49;;;;;;;46.70;24.10;;;;;;;0.49;88.64;100630.53;1790235;80;21286;-79
2020/12/15 01:05:16;;;;;;;55.78;28.25;;;;;;;0.47;88.56;100630.50;1790713;80;21150;-77
2020/12/15 01:07:47;;;;;;;58.15;27.48;;;;;;;0.46;88.55;100631.37;1790863;80;21111;-79
2020/12/15 01:10:15;;;;;;;40.90;20.57;;;;;;;0.48;88.38;100637.41;1791066;80;21119;-78
2020/12/15 01:12:45;;;;;;;56.25;28.77;;;;;;;0.47;88.35;100636.98;1790533;80;21630;-78
2020/12/15 01:15:15;;;;;;;63.33;27.52;;;;;;;0.47;88.44;100629.64;1790943;79;21547;-79
2020/12/15 01:17:44;;;;;;;51.35;24.70;;;;;;;0.48;88.44;100632.66;1790520;80;21138;-77
2020/12/15 01:20:14;;;;;;;59.77;28.70;;;;;;;0.48;88.41;100634.81;1790666;80;21198;-77
2020/12/15 01:22:44;;;;;;;59.85;28.70;;;;;;;0.49;88.22;100634.42;1773413;80;21184;-78
2020/12/15 01:25:14;;;;;;;58.38;28.98;;;;;;;0.49;88.09;100631.39;1790502;80;21150;-78
2020/12/15 01:27:58;;;;;;;54.83;27.47;;;;;;;0.54;88.12;100632.31;1889066;75;22647;-77
2020/12/15 01:30:27;;;;;;;59.25;29.57;;;;;;;0.48;88.22;100637.41;1860065;77;21690;-78
2020/12/15 01:33:02;;;;;;;60.52;28.38;;;;;;;0.49;88.29;100633.98;1782207;78;21432;-77
2020/12/15 01:35:33;;;;;;;60.48;28.57;;;;;;;0.47;88.21;100633.52;1781028;78;21020;-73
2020/12/15 01:38:00;;;;;;;54.45;25.40;;;;;;;0.47;88.21;100634.82;1789531;80;21669;-73
2020/12/15 01:40:30;;;;;;;53.52;27.85;;;;;;;0.49;88.09;100637.01;1789278;80;21175;-74
2020/12/15 01:42:59;;;;;;;52.23;26.40;;;;;;;0.49;88.05;100639.17;1789066;80;21142;-74
2020/12/15 01:45:27;;;;;;;55.58;25.52;;;;;;;0.46;88.02;100639.14;1789088;80;21336;-73
2020/12/15 01:47:55;;;;;;;48.33;24.43;;;;;;;0.43;88.15;100639.08;1789031;80;21466;-72
2020/12/15 01:50:25;;;;;;;57.88;26.85;;;;;;;0.44;88.27;100638.25;1758659;80;21144;-73
2020/12/15 01:52:52;;;;;;;58.65;27.55;;;;;;;0.45;88.31;100637.81;1788917;80;21140;-72
2020/12/15 01:55:20;;;;;;;55.88;26.85;;;;;;;0.46;88.24;100640.44;1789260;80;21227;-73
2020/12/15 01:58:00;;;;;;;55.33;26.27;;;;;;;0.53;88.16;100630.59;1811264;77;22751;-73
2020/12/15 02:00:36;;;;;;;60.38;28.77;;;;;;;0.47;88.10;100633.09;1778345;80;21135;-78
2020/12/15 02:03:06;;;;;;;54.20;26.40;;;;;;;0.47;88.25;100639.57;1781932;80;21343;-75
2020/12/15 02:05:42;;;;;;;59.53;28.05;;;;;;;0.48;88.31;100632.23;1777924;80;21159;-75
2020/12/15 02:08:09;;;;;;;60.95;26.85;;;;;;;0.46;88.23;100633.06;1776426;80;21202;-75
2020/12/15 02:10:38;;;;;;;56.88;27.00;;;;;;;0.47;88.19;100627.91;1721439;81;21590;-75
2020/12/15 02:13:29;;;;;;;58.63;27.27;;;;;;;0.52;88.12;100631.42;1836385;76;22798;-75
2020/12/15 02:15:59;;;;;;;54.80;26.95;;;;;;;0.48;88.09;100632.23;1753454;80;21164;-73
2020/12/15 02:18:28;;;;;;;62.55;28.12;;;;;;;0.46;88.14;100631.37;1784462;80;22279;-76
2020/12/15 02:20:58;;;;;;;64.90;29.37;;;;;;;0.47;88.22;100629.64;1783239;80;21226;-76
2020/12/15 02:23:42;;;;;;;55.93;27.47;;;;;;;0.50;88.32;100627.94;1790749;77;22674;-76
2020/12/15 02:26:27;;;;;;;54.20;26.23;;;;;;;0.46;88.29;100630.07;1750312;81;21158;-76
2020/12/15 02:28:55;;;;;;;57.50;27.62;;;;;;;0.45;88.07;100629.61;1751478;81;21381;-75
2020/12/15 02:33:26;;;;;;;56.83;27.67;;;;;;;0.48;88.21;100616.67;1816668;79;22520;-76
2020/12/15 02:35:54;;;;;;;48.28;22.70;;;;;;;0.44;88.18;100624.00;1769255;80;21209;-76
2020/12/15 02:38:23;;;;;;;55.70;25.92;;;;;;;0.45;88.23;100623.13;1758345;81;21198;-75
2020/12/15 02:40:51;;;;;;;60.38;28.57;;;;;;;0.47;88.33;100627.91;1758306;81;21631;-74
2020/12/15 02:43:23;;;;;;;54.67;24.82;;;;;;;0.50;88.18;100620.59;1755421;81;21179;-74
2020/12/15 02:45:53;;;;;;;50.33;24.12;;;;;;;0.50;88.06;100620.16;1758256;81;21171;-76
2020/12/15 02:48:22;;;;;;;52.85;25.05;;;;;;;0.48;88.15;100627.05;1758377;80;21180;-74
2020/12/15 02:50:51;;;;;;;58.85;26.48;;;;;;;0.47;88.13;100625.31;1758344;80;21205;-76
2020/12/15 02:53:21;;;;;;;60.38;27.52;;;;;;;0.47;88.22;100624.02;1757546;81;21188;-76
2020/12/15 02:55:50;;;;;;;58.83;27.77;;;;;;;0.47;88.23;100626.61;1758341;81;21168;-75
2020/12/15 02:58:20;;;;;;;54.35;25.77;;;;;;;0.49;88.12;100627.50;1758106;81;21179;-78
2020/12/15 03:00:50;;;;;;;56.88;26.60;;;;;;;0.50;88.04;100630.52;1759258;81;21162;-77
2020/12/15 03:03:19;;;;;;;54.13;28.02;;;;;;;0.51;88.17;100632.72;1729694;81;21566;-77
2020/12/15 03:05:49;;;;;;;55.87;26.53;;;;;;;0.52;88.17;100625.38;1758539;81;21154;-77
2020/12/15 03:08:17;;;;;;;53.75;25.25;;;;;;;0.49;88.16;100630.09;1758581;81;21687;-76
2020/12/15 03:10:48;;;;;;;50.08;24.92;;;;;;;0.48;88.28;100620.56;1758413;81;21565;-75
2020/12/15 03:13:16;;;;;;;50.55;24.37;;;;;;;0.50;88.21;100627.94;1758526;81;21141;-78
2020/12/15 03:15:44;;;;;;;51.90;25.55;;;;;;;0.52;88.11;100622.34;1730241;81;22209;-78
2020/12/15 03:18:14;;;;;;;52.08;25.45;;;;;;;0.53;88.07;100633.17;1760007;81;21169;-80
2020/12/15 03:20:46;;;;;;;52.13;25.90;;;;;;;0.50;88.09;100625.34;1761939;81;21174;-79
2020/12/15 03:23:18;;;;;;;56.30;27.10;;;;;;;0.47;88.01;100631.80;1760759;81;21158;-78
2020/12/15 03:25:52;;;;;;;55.95;27.75;;;;;;;0.44;88.08;100633.06;1759763;81;21573;-79
2020/12/15 03:28:18;;;;;;;55.08;26.05;;;;;;;0.43;88.11;100642.97;1758574;81;21387;-73
2020/12/15 03:30:47;;;;;;;59.20;28.42;;;;;;;0.42;88.21;100643.83;1728564;81;21206;-72
2020/12/15 03:33:15;;;;;;;44.23;21.30;;;;;;;0.43;88.10;100649.45;1731379;81;21154;-76
2020/12/15 03:35:44;;;;;;;59.42;27.75;;;;;;;0.40;88.17;100644.23;1666833;84;21582;-74
2020/12/15 03:38:13;;;;;;;56.40;29.10;;;;;;;0.38;88.25;100650.69;1680967;84;21153;-72
2020/12/15 03:40:48;;;;;;;65.20;29.02;;;;;;;0.37;88.31;100659.75;1680125;85;21403;-76
2020/12/15 03:43:24;;;;;;;55.75;27.32;;;;;;;0.37;88.42;100658.45;1671393;85;21675;-73
2020/12/15 03:46:20;;;;;;;46.00;22.00;;;;;;;0.41;88.29;100659.81;1930219;73;22736;-73
2020/12/15 03:48:50;;;;;;;49.77;25.12;;;;;;;0.36;88.31;100661.88;1890656;75;26883;-71
2020/12/15 03:51:19;;;;;;;54.20;24.92;;;;;;;0.38;88.50;100661.48;1862875;77;21618;-72
2020/12/15 03:54:06;;;;;;;49.70;25.82;;;;;;;0.38;88.61;100666.66;1862667;77;21172;-72
2020/12/15 03:56:36;;;;;;;52.73;25.92;;;;;;;0.38;88.54;100667.95;1863142;77;21183;-72
2020/12/15 03:59:05;;;;;;;55.10;26.00;;;;;;;0.35;88.60;100668.80;1862771;77;21167;-73
2020/12/15 04:01:33;;;;;;;45.80;21.75;;;;;;;0.38;88.69;100669.25;1862700;77;21631;-72
2020/12/15 04:04:02;;;;;;;50.12;24.85;;;;;;;0.42;88.68;100664.56;1862709;77;21827;-72
2020/12/15 04:06:32;;;;;;;49.33;24.50;;;;;;;0.43;88.54;100659.81;1861814;75;21171;-72
2020/12/15 04:09:02;;;;;;;50.60;24.52;;;;;;;0.43;88.58;100661.54;1857049;77;21176;-72
2020/12/15 04:11:30;;;;;;;49.98;24.70;;;;;;;0.42;88.56;100659.38;1826956;77;21555;-72
2020/12/15 04:13:59;;;;;;;44.65;21.12;;;;;;;0.45;88.69;100665.89;1862626;77;21124;-73
2020/12/15 04:16:27;;;;;;;43.63;21.87;;;;;;;0.44;88.55;100670.64;1862711;77;21559;-73
2020/12/15 04:18:57;;;;;;;44.38;19.98;;;;;;;0.45;88.44;100674.95;1857780;77;21147;-72
2020/12/15 04:21:26;;;;;;;45.58;22.62;;;;;;;0.47;88.46;100674.98;1827097;77;21175;-73
2020/12/15 04:23:55;;;;;;;51.48;23.95;;;;;;;0.47;88.43;100673.69;1795094;78;21602;-72
2020/12/15 04:26:23;;;;;;;53.33;25.60;;;;;;;0.46;88.46;100680.61;1827356;78;22207;-76
2020/12/15 04:28:53;;;;;;;55.33;26.23;;;;;;;0.44;88.38;100682.30;1826914;78;21289;-75
2020/12/15 04:31:21;;;;;;;49.50;24.43;;;;;;;0.41;88.31;100691.31;1827139;78;21135;-76
2020/12/15 04:33:51;;;;;;;46.33;23.05;;;;;;;0.37;88.33;100688.26;1826866;77;21174;-75
2020/12/15 04:36:21;;;;;;;45.83;22.22;;;;;;;0.40;88.42;100691.73;1827211;77;21167;-77
2020/12/15 04:38:49;;;;;;;44.63;24.23;;;;;;;0.43;88.38;100693.50;1827221;78;21572;-76
2020/12/15 04:41:19;;;;;;;46.58;22.02;;;;;;;0.43;88.44;100697.38;1825549;78;21211;-76
2020/12/15 04:43:48;;;;;;;48.87;24.80;;;;;;;0.42;88.50;100700.84;1769938;78;21180;-78
2020/12/15 04:46:21;;;;;;;48.13;24.07;;;;;;;0.44;88.47;100704.33;1819827;77;21156;-75
2020/12/15 04:49:05;;;;;;;43.90;22.13;;;;;;;0.41;88.45;100697.39;1817076;78;21164;-76
2020/12/15 04:51:49;;;;;;;40.55;21.27;;;;;;;0.43;88.43;100703.86;1817975;78;21120;-73
2020/12/15 04:54:18;;;;;;;40.83;21.50;;;;;;;0.48;88.28;100700.03;1779408;78;21386;-75
2020/12/15 04:56:47;;;;;;;42.53;22.45;;;;;;;0.47;88.23;100697.87;1763583;78;21163;-73
2020/12/15 04:59:20;;;;;;;44.35;21.17;;;;;;;0.46;88.27;100701.34;1764911;78;21188;-71
2020/12/15 05:01:50;;;;;;;46.02;23.77;;;;;;;0.43;88.27;100703.86;1804825;78;21200;-73
2020/12/15 05:04:20;;;;;;;48.85;23.95;;;;;;;0.42;88.28;100700.84;1837322;78;21828;-74
2020/12/15 05:06:58;;;;;;;44.30;23.40;;;;;;;0.47;88.33;100702.20;1845978;76;22889;-74
2020/12/15 05:09:29;;;;;;;40.77;21.50;;;;;;;0.46;88.23;100710.41;1807717;78;21795;-73
2020/12/15 05:11:59;;;;;;;38.95;20.17;;;;;;;0.48;88.29;100709.97;1779436;79;21405;-76
2020/12/15 05:14:51;;;;;;;37.70;20.10;;;;;;;0.52;88.34;100701.39;1842875;76;22781;-77
2020/12/15 05:17:25;;;;;;;41.77;21.10;;;;;;;0.45;88.35;100715.13;1816819;79;21159;-78
2020/12/15 05:19:56;;;;;;;42.83;20.80;;;;;;;0.45;88.39;100724.19;1795899;79;21285;-76
2020/12/15 05:22:42;;;;;;;45.03;23.45;;;;;;;0.43;88.43;100724.59;1782940;80;21194;-75
2020/12/15 05:25:30;;;;;;;42.90;21.77;;;;;;;0.44;88.38;100726.36;1784010;80;21609;-76
2020/12/15 05:28:12;;;;;;;41.95;23.18;;;;;;;0.44;88.40;100729.34;1783831;80;21674;-78
2020/12/15 05:30:47;;;;;;;37.27;20.63;;;;;;;0.46;88.46;100736.32;1808216;77;22826;-76
2020/12/15 05:33:33;;;;;;;50.35;23.92;;;;;;;0.43;88.58;100736.25;1747196;81;21598;-75
2020/12/15 05:36:21;;;;;;;42.78;21.15;;;;;;;0.43;88.65;100732.37;1750816;81;21867;-77
2020/12/15 05:39:06;;;;;;;49.70;25.23;;;;;;;0.42;88.65;100737.12;1751038;81;21234;-76
2020/12/15 05:41:43;;;;;;;49.90;24.80;;;;;;;0.49;88.63;100741.53;1846300;76;23375;-76
2020/12/15 05:44:13;;;;;;;49.73;25.68;;;;;;;0.46;88.64;100742.80;1816305;79;21162;-73
2020/12/15 05:46:47;;;;;;;47.90;25.90;;;;;;;0.48;88.63;100745.39;1802558;79;21355;-76
2020/12/15 05:49:16;;;;;;;53.00;24.57;;;;;;;0.44;88.70;100749.67;1713715;80;21194;-76
2020/12/15 05:51:44;;;;;;;46.25;23.85;;;;;;;0.42;88.68;100755.26;1732932;80;21206;-75
2020/12/15 05:54:13;;;;;;;56.75;27.60;;;;;;;0.40;88.74;100764.73;1783960;80;21155;-76
2020/12/15 05:56:42;;;;;;;53.10;25.97;;;;;;;0.38;88.70;100766.42;1783916;80;21115;-75
2020/12/15 05:59:19;;;;;;;49.33;22.42;;;;;;;0.39;88.58;100768.15;1784043;80;21374;-73
2020/12/15 06:01:52;;;;;;;47.80;23.25;;;;;;;0.41;88.49;100770.34;1783626;80;21666;-73
2020/12/15 06:04:21;;;;;;;47.08;24.10;;;;;;;0.40;88.59;100772.06;1783833;80;21195;-74
2020/12/15 06:06:49;;;;;;;54.75;25.70;;;;;;;0.41;88.74;100775.52;1783833;80;21147;-74
2020/12/15 06:09:17;;;;;;;49.50;25.10;;;;;;;0.41;88.74;100772.93;1783744;80;21175;-74
2020/12/15 06:11:46;;;;;;;56.83;26.35;;;;;;;0.38;88.74;100783.27;1783875;80;21439;-73
2020/12/15 06:14:14;;;;;;;53.02;25.37;;;;;;;0.41;88.78;100789.77;1783960;79;21158;-74
2020/12/15 06:16:42;;;;;;;57.80;26.37;;;;;;;0.42;88.67;100798.02;1783932;80;21202;-75
2020/12/15 06:19:12;;;;;;;60.60;28.02;;;;;;;0.43;88.82;100795.86;1783757;79;21151;-75
2020/12/15 06:21:56;;;;;;;47.53;22.77;;;;;;;0.45;88.90;100796.75;1783913;80;21114;-77
2020/12/15 06:24:37;;;;;;;42.95;21.05;;;;;;;0.45;88.91;100801.94;1782857;79;21359;-73
2020/12/15 06:27:02;;;;;;;44.05;22.05;;;;;;;0.49;89.01;100798.98;1779023;79;21674;-68
2020/12/15 06:29:39;;;;;;;35.95;18.70;;;;;;;0.52;88.86;100809.38;1779267;79;21808;-70
2020/12/15 06:32:17;;;;;;;38.25;20.65;;;;;;;0.54;88.84;100810.28;1776667;79;21208;-70
2020/12/15 06:34:47;;;;;;;49.60;24.12;;;;;;;0.55;88.89;100810.31;1779414;80;21211;-67
2020/12/15 06:37:16;;;;;;;44.77;23.05;;;;;;;0.56;88.99;100810.75;1780538;80;21378;-67
2020/12/15 06:39:59;;;;;;;45.60;21.10;;;;;;;0.56;88.98;100808.16;1781799;80;21178;-70
2020/12/15 06:42:28;;;;;;;43.52;22.40;;;;;;;0.55;88.88;100812.91;1782175;80;21170;-69
2020/12/15 06:45:08;;;;;;;39.58;20.05;;;;;;;0.57;88.97;100820.68;1781903;80;21377;-68
2020/12/15 06:47:36;;;;;;;38.90;20.15;;;;;;;0.60;88.89;100815.56;1782354;80;21208;-69
2020/12/15 06:50:15;;;;;;;;;;;;;;;0.63;88.76;100819.05;1784882;80;22240;-69
2020/12/15 06:52:44;;;;;;;40.43;20.40;;;;;;;0.66;88.78;100832.91;1781526;80;20928;-69
2020/12/15 06:55:12;;;;;;;33.92;19.00;;;;;;;0.65;88.76;100828.59;1780896;80;21195;-69
2020/12/15 06:57:40;;;;;;;46.65;23.15;;;;;;;0.61;88.67;100831.12;1781366;80;21682;-69
2020/12/15 07:00:11;;;;;;;28.38;16.25;;;;;;;0.62;88.67;100838.06;1782242;80;21682;-69
2020/12/15 07:02:43;;;;;;;44.60;20.90;;;;;;;0.62;88.58;100839.76;1781787;80;21293;-69
2020/12/15 07:05:25;;;;;;;33.42;17.57;;;;;;;0.65;88.53;100840.26;1781688;80;21619;-69
2020/12/15 07:07:58;;;;;;;44.08;22.82;;;;;;;0.66;88.50;100835.07;1781455;80;21264;-69
2020/12/15 07:10:28;;;;;;;45.48;23.65;;;;;;;0.67;88.48;100839.83;1781770;80;21982;-68
2020/12/15 07:12:59;;;;;;;45.43;23.93;;;;;;;0.67;88.44;100843.71;1781846;80;21194;-69
2020/12/15 07:15:28;;;;;;;;;;;;;;;0.66;88.39;100848.47;1784379;80;21614;-69
2020/12/15 07:17:56;;;;;;;46.02;22.45;;;;;;;0.69;88.45;100845.51;1782693;79;20955;-69
2020/12/15 07:20:24;;;;;;;41.02;21.20;;;;;;;0.70;88.39;100840.76;1783234;80;21142;-69
2020/12/15 07:22:51;;;;;;;40.05;20.65;;;;;;;0.72;88.44;100836.90;1783283;80;21114;-70
2020/12/15 07:25:20;;;;;;;37.15;20.57;;;;;;;0.75;88.85;100836.94;1783214;80;21657;-70
2020/12/15 07:27:49;;;;;;;32.05;16.67;;;;;;;0.78;88.91;100838.27;1783166;80;22253;-68
2020/12/15 07:30:21;;;;;;;38.65;20.37;;;;;;;0.80;88.77;100843.05;1753195;80;21229;-70
2020/12/15 07:32:50;;;;;;;35.90;20.62;;;;;;;0.87;88.71;100843.58;1782929;80;21123;-68
2020/12/15 07:35:27;;;;;;;41.25;21.35;;;;;;;0.88;88.66;100842.74;1783185;80;21183;-67
2020/12/15 07:37:57;;;;;;;40.60;21.35;;;;;;;0.92;88.62;100847.13;1783161;80;21179;-70
2020/12/15 07:40:30;;;;;;;40.85;20.40;;;;;;;0.91;88.62;100847.09;1783206;79;22261;-69
2020/12/15 07:43:01;;;;;;;44.98;22.48;;;;;;;0.91;88.61;100850.98;1782966;80;21685;-69
2020/12/15 07:45:30;;;;;;;;;;;;;;;0.87;88.41;100847.47;1785758;79;21151;-69
2020/12/15 07:47:59;;;;;;;41.65;22.13;;;;;;;0.85;88.52;100845.27;1782994;80;20266;-69
2020/12/15 07:50:29;;;;;;;35.55;18.48;;;;;;;0.88;88.48;100852.25;1783393;80;22210;-69
2020/12/15 07:53:10;;;;;;;36.60;19.13;;;;;;;0.93;88.45;100849.30;1783205;80;22573;-70
2020/12/15 07:55:40;;;;;;;40.30;20.48;;;;;;;0.94;88.33;100850.59;1783017;79;21201;-69
2020/12/15 07:58:16;;;;;;;35.73;19.12;;;;;;;0.95;88.43;100849.75;1780906;78;21638;-70
2020/12/15 08:00:44;;;;;;;39.42;19.65;;;;;;;1.00;88.44;100853.27;1779973;80;21156;-70
2020/12/15 08:03:12;;;;;;;37.65;19.70;;;;;;;1.02;88.46;100855.47;1790940;76;76391;-95
2020/12/15 08:06:24;;;;;;;40.92;21.65;;;;;;;1.04;88.27;100849.88;1795751;78;21196;-95
2020/12/15 08:09:34;;;;;;;38.90;20.57;;;;;;;1.10;88.03;100855.99;1752464;80;21159;-95
2020/12/15 08:12:45;;;;;;;40.90;22.07;;;;;;;1.14;88.01;100855.19;1764691;81;21075;-94
2020/12/15 08:15:53;;;;;;;43.17;21.02;;;;;;;1.18;87.98;100848.77;1776641;79;21087;-94
2020/12/15 08:18:49;;;;;;;42.15;22.00;;;;;;;1.24;87.86;100857.03;1733937;78;21140;-94
2020/12/15 08:21:58;;;;;;;44.33;23.25;;;;;;;1.25;87.70;100853.61;1791661;80;21158;-95
2020/12/15 08:25:14;;;;;;;40.85;22.80;;;;;;;1.32;87.68;100854.13;1795330;80;21106;-95
2020/12/15 08:28:27;;;;;;;38.08;21.07;;;;;;;1.36;87.49;100854.61;1794521;80;21170;-95
2020/12/15 08:31:46;;;;;;;38.38;19.55;;;;;;;1.37;87.21;100860.23;1792851;80;21135;-94
2020/12/15 08:38:15;;;;;;;38.00;20.10;;;;;;;1.39;86.82;100862.42;1779427;76;21160;-94
2020/12/15 08:41:05;;;;;;;38.28;19.62;;;;;;;1.45;86.74;100864.23;1661876;84;21226;-70
2020/12/15 08:43:33;;;;;;;36.10;20.27;;;;;;;1.48;86.71;100868.59;1655028;85;21216;-69
2020/12/15 08:46:02;;;;;;;45.85;22.37;;;;;;;1.50;86.62;100861.70;1634775;87;21207;-68
2020/12/15 08:48:32;;;;;;;39.83;18.87;;;;;;;1.55;86.54;100866.52;1656225;84;21204;-69
2020/12/15 08:51:00;;;;;;;42.67;19.37;;;;;;;1.57;86.49;100863.52;1579888;88;21255;-69
2020/12/15 08:53:28;;;;;;;36.38;20.23;;;;;;;1.61;86.34;100859.67;1606778;86;21778;-69
2020/12/15 08:55:57;;;;;;;34.92;19.48;;;;;;;1.64;86.27;100862.72;1560829;88;21607;-67
2020/12/15 08:58:27;;;;;;;34.58;18.98;;;;;;;1.63;86.10;100862.26;1618968;87;21643;-69
2020/12/15 09:00:56;;;;;;;;;;;;;;;1.59;86.05;100861.80;1648576;86;21250;-68
2020/12/15 09:03:24;;;;;;;34.75;18.55;;;;;;;1.59;86.26;100864.41;1646068;87;21225;-70
2020/12/15 09:05:56;;;;;;;36.00;18.90;;;;;;;1.61;86.48;100862.66;1638881;86;21215;-69
2020/12/15 09:08:26;;;;;;;36.13;19.10;;;;;;;1.65;86.45;100864.45;1646068;87;21223;-70
2020/12/15 09:10:57;;;;;;;34.10;18.10;;;;;;;1.64;86.31;100858.83;1645990;87;21709;-70
2020/12/15 09:13:25;;;;;;;35.15;18.73;;;;;;;1.65;86.32;100864.45;1641250;85;21255;-70
2020/12/15 09:15:54;;;;;;;33.67;18.48;;;;;;;1.65;85.98;100864.45;1639754;87;22111;-70
2020/12/15 09:18:33;;;;;;;30.65;17.95;;;;;;;1.63;86.00;100863.55;1640669;87;21643;-69
2020/12/15 09:21:18;;;;;;;36.13;19.65;;;;;;;1.63;86.06;100860.95;1641171;87;21156;-70
2020/12/15 09:23:52;;;;;;;33.88;18.05;;;;;;;1.65;86.18;100867.05;1640947;87;21152;-70
2020/12/15 09:26:21;;;;;;;31.37;17.42;;;;;;;1.67;86.30;100862.75;1640843;87;21573;-69
2020/12/15 09:28:49;;;;;;;31.42;18.00;;;;;;;1.71;86.33;100867.13;1640779;87;21437;-70
2020/12/15 09:31:19;;;;;;;35.60;20.02;;;;;;;1.75;86.20;100869.31;1639900;87;21276;-70
2020/12/15 09:33:48;;;;;;;33.73;18.75;;;;;;;1.73;86.05;100866.72;1640846;87;21710;-70
2020/12/15 09:36:17;;;;;;;36.53;19.52;;;;;;;1.73;86.04;100865.42;1640568;86;21263;-69
2020/12/15 09:38:46;;;;;;;37.63;19.50;;;;;;;1.75;85.88;100866.31;1632400;87;21680;-68
2020/12/15 09:41:15;;;;;;;36.38;18.52;;;;;;;1.72;85.72;100862.36;1681101;84;21205;-69
2020/12/15 09:43:43;;;;;;;28.45;16.45;;;;;;;1.75;85.50;100862.81;1688120;85;21681;-71
2020/12/15 09:46:11;;;;;;;30.92;18.12;;;;;;;1.75;85.37;100866.31;1686868;83;21194;-70
2020/12/15 09:48:39;;;;;;;38.33;19.80;;;;;;;1.77;85.63;100860.70;1679521;83;21186;-69
2020/12/15 09:51:07;;;;;;;33.00;18.80;;;;;;;1.83;85.71;100860.75;1683439;85;21464;-69
2020/12/15 09:53:34;;;;;;;33.73;18.60;;;;;;;1.86;85.76;100866.00;1666222;82;21819;-67
2020/12/15 09:56:03;;;;;;;32.30;17.57;;;;;;;1.88;85.62;100861.66;1692870;84;21222;-69
2020/12/15 09:58:33;;;;;;;37.10;21.17;;;;;;;1.88;85.53;100856.90;1689822;84;21234;-66
2020/12/15 10:01:04;;;;;;;33.92;19.20;;;;;;;1.92;85.28;100860.41;1685196;85;21222;-66
2020/12/15 10:03:32;;;;;;;35.08;19.17;;;;;;;1.91;85.09;100853.46;1688205;85;21657;-67
2020/12/15 10:06:01;;;;;;;37.42;19.30;;;;;;;1.89;85.09;100856.06;1686417;82;21661;-67
2020/12/15 10:08:31;;;;;;;33.78;17.67;;;;;;;1.88;85.18;100849.97;1678506;82;21692;-69
2020/12/15 10:10:59;;;;;;;39.03;19.95;;;;;;;1.88;85.14;100849.97;1688078;85;21582;-69
2020/12/15 10:13:27;;;;;;;37.38;20.88;;;;;;;1.88;85.13;100849.11;1688009;85;21162;-67
2020/12/15 10:15:57;;;;;;;42.80;19.83;;;;;;;1.88;85.12;100852.57;1687363;84;21154;-69
2020/12/15 10:18:25;;;;;;;38.78;18.32;;;;;;;1.93;85.04;100854.34;1684519;85;21591;-65
2020/12/15 10:20:53;;;;;;;30.30;16.85;;;;;;;1.95;85.09;100850.91;1688071;84;21174;-66
2020/12/15 10:23:21;;;;;;;42.13;19.48;;;;;;;1.96;85.15;100854.40;1699874;82;21178;-66
2020/12/15 10:25:49;;;;;;;47.70;20.55;;;;;;;1.99;85.32;100849.22;1670596;84;21244;-66
2020/12/15 10:28:17;;;;;;;42.95;22.25;;;;;;;2.02;85.09;100850.54;1670708;85;21225;-67
2020/12/15 10:30:45;;;;;;;36.90;19.45;;;;;;;2.01;84.85;100852.71;1682909;85;21395;-67
2020/12/15 10:33:13;;;;;;;40.30;19.20;;;;;;;1.98;84.70;100852.66;1688332;85;21183;-68
2020/12/15 10:35:41;;;;;;;39.00;20.12;;;;;;;1.99;84.73;100854.42;1688228;85;21134;-67
2020/12/15 10:38:13;;;;;;;42.93;19.85;;;;;;;1.99;84.64;100849.22;1688170;84;21178;-66
2020/12/15 10:40:41;;;;;;;40.73;19.77;;;;;;;2.00;84.83;100855.74;1678272;82;21307;-68
2020/12/15 10:43:10;;;;;;;40.50;20.00;;;;;;;2.00;84.74;100854.84;1671255;84;21487;-66
2020/12/15 10:45:38;;;;;;;43.17;22.05;;;;;;;1.98;84.66;100865.24;1659502;86;21221;-68
2020/12/15 10:48:06;;;;;;;38.63;20.65;;;;;;;1.98;84.73;100861.34;1691620;84;21265;-68
2020/12/15 10:50:34;;;;;;;33.33;18.02;;;;;;;1.98;84.63;100865.65;1692857;84;21222;-67
2020/12/15 10:53:04;;;;;;;37.95;19.17;;;;;;;2.00;84.71;100862.64;1692923;84;21225;-67
2020/12/15 10:55:31;;;;;;;38.20;20.90;;;;;;;2.01;84.54;100859.20;1692977;84;21217;-66
2020/12/15 10:58:00;;;;;;;38.05;19.50;;;;;;;1.98;84.60;100863.95;1659689;84;21210;-66
2020/12/15 11:00:28;;;;;;;40.33;18.75;;;;;;;1.99;84.75;100866.11;1658959;86;21624;-66
2020/12/15 11:02:56;;;;;;;51.77;21.00;;;;;;;1.98;84.71;100866.55;1659608;86;21217;-66
2020/12/15 11:05:24;;;;;;;36.03;17.60;;;;;;;1.97;84.54;100863.92;1659565;86;21153;-67
2020/12/15 11:07:52;;;;;;;46.58;22.00;;;;;;;1.96;84.76;100872.59;1659619;84;22306;-67
2020/12/15 11:10:20;;;;;;;37.45;19.82;;;;;;;2.00;84.87;100871.33;1659476;86;21645;-67
2020/12/15 11:12:48;;;;;;;40.63;20.45;;;;;;;2.02;84.76;100870.03;1659671;85;21761;-70
2020/12/15 11:15:16;;;;;;;41.23;22.52;;;;;;;2.03;84.86;100875.69;1659555;86;21231;-69
2020/12/15 11:17:44;;;;;;;37.75;19.05;;;;;;;2.02;84.68;100877.82;1659517;86;21220;-68
2020/12/15 11:20:12;;;;;;;39.05;19.35;;;;;;;2.00;84.82;100883.42;1659569;84;21487;-69
2020/12/15 11:22:41;;;;;;;44.10;21.33;;;;;;;2.00;84.71;100883.42;1659610;85;21695;-68
2020/12/15 11:25:08;;;;;;;43.85;21.77;;;;;;;1.99;84.72;100884.30;1660632;84;21643;-69
2020/12/15 11:27:36;;;;;;;41.73;20.30;;;;;;;2.03;84.78;100884.78;1707071;83;21211;-67
2020/12/15 11:30:04;;;;;;;36.73;18.50;;;;;;;2.04;84.51;100891.70;1707194;84;21219;-67
2020/12/15 11:32:32;;;;;;;39.70;19.95;;;;;;;2.00;84.49;100898.61;1707123;84;21347;-67
2020/12/15 11:35:00;;;;;;;40.43;19.98;;;;;;;2.00;84.75;100897.72;1707000;83;21171;-67
2020/12/15 11:37:28;;;;;;;44.27;21.87;;;;;;;1.95;84.39;100898.10;1707005;84;21183;-66
2020/12/15 11:39:57;;;;;;;46.90;22.87;;;;;;;1.84;84.39;100896.27;1713883;82;21641;-66
2020/12/15 11:42:25;;;;;;;36.00;18.15;;;;;;;1.76;84.54;100894.44;1669498;82;21157;-67
2020/12/15 11:44:55;;;;;;;44.93;21.52;;;;;;;1.77;84.79;100902.66;1668391;86;22198;-67
2020/12/15 11:47:23;;;;;;;51.95;24.23;;;;;;;1.79;84.79;100903.12;1668225;86;21232;-66